Time;durP1;ratioP1;P1;durP2;ratioP2;P2;SDS_P1;SDS_P2;PMS_P1;PMS_P2;Temp;Humidity;BMP_temperature;BMP_pressure;BME280_temperature;BME280_humidity;BME280_pressure;Samples;Min_cycle;Max_cycle;Signal;HPM_P1;HPM_P2
2021/10/05 00:01:49;;;;;;;;;;;20.30;64.20;;;;;;5055369;28;19923;-77
2021/10/05 00:04:15;;;;;;;;;;;20.40;64.20;;;;;;5042306;28;19975;-76
2021/10/05 00:06:40;;;;;;;;;;;20.30;64.20;;;;;;5041916;28;20359;-76
2021/10/05 00:09:05;;;;;;;;;;;20.40;64.20;;;;;;5045144;28;19928;-77
2021/10/05 00:11:31;;;;;;;;;;;20.30;64.20;;;;;;5052232;28;19963;-76
2021/10/05 00:13:56;;;;;;;;;;;20.40;64.20;;;;;;5048749;28;20413;-77
2021/10/05 00:16:22;;;;;;;;;;;20.40;64.20;;;;;;5048262;28;19917;-77
2021/10/05 00:18:49;;;;;;;;;;;20.30;64.20;;;;;;5037111;28;19947;-77
2021/10/05 00:21:15;;;;;;;;;;;20.40;64.20;;;;;;5029765;28;19972;-76
2021/10/05 00:23:40;;;;;;;;;;;20.40;64.20;;;;;;5025599;28;19949;-77
2021/10/05 00:26:06;;;;;;;;;;;20.30;64.20;;;;;;5050765;28;19943;-75
2021/10/05 00:28:31;;;;;;;;;;;20.40;64.20;;;;;;5050747;28;19924;-76
2021/10/05 00:30:57;;;;;;;;;;;20.30;64.20;;;;;;5031151;28;19970;-76
2021/10/05 00:33:22;;;;;;;;;;;20.40;64.20;;;;;;5035491;28;19958;-76
2021/10/05 00:35:48;;;;;;;;;;;20.40;64.20;;;;;;5062641;28;20290;-76
2021/10/05 00:38:13;;;;;;;;;;;20.40;64.20;;;;;;5055027;28;19931;-77
2021/10/05 00:40:39;;;;;;;;;;;20.30;64.20;;;;;;5015380;28;19924;-76
2021/10/05 00:43:05;;;;;;;;;;;20.40;64.20;;;;;;5055761;28;20647;-76
2021/10/05 00:45:30;;;;;;;;;;;20.40;64.20;;;;;;5017331;28;19990;-78
2021/10/05 00:47:56;;;;;;;;;;;20.30;64.20;;;;;;5048230;28;20578;-76
2021/10/05 00:50:21;;;;;;;;;;;20.30;64.20;;;;;;5029616;28;20049;-77
2021/10/05 00:52:47;;;;;;;;;;;20.30;64.10;;;;;;5040811;28;19921;-76
2021/10/05 00:55:13;;;;;;;;;;;20.30;64.20;;;;;;5032875;28;19921;-77
2021/10/05 00:57:38;;;;;;;;;;;20.30;64.10;;;;;;5038449;28;19916;-76
2021/10/05 01:00:04;;;;;;;;;;;20.30;64.20;;;;;;5049894;28;19917;-76
2021/10/05 01:02:30;;;;;;;;;;;20.30;64.10;;;;;;5045934;28;19967;-76
2021/10/05 01:04:55;;;;;;;;;;;20.30;64.10;;;;;;5053886;28;19970;-76
2021/10/05 01:07:20;;;;;;;;;;;20.30;64.10;;;;;;5048617;28;20283;-76
2021/10/05 01:09:46;;;;;;;;;;;20.30;64.00;;;;;;5046148;28;19920;-76
2021/10/05 01:12:11;;;;;;;;;;;20.30;64.10;;;;;;5041269;28;19943;-76
2021/10/05 01:14:37;;;;;;;;;;;20.30;64.10;;;;;;5051854;28;19922;-76
2021/10/05 01:17:03;;;;;;;;;;;20.30;64.10;;;;;;5027741;28;19916;-76
2021/10/05 01:19:28;;;;;;;;;;;20.30;64.10;;;;;;5019777;28;20510;-76
2021/10/05 01:21:53;;;;;;;;;;;20.30;64.10;;;;;;5046664;28;19917;-75
2021/10/05 01:24:20;;;;;;;;;;;20.30;64.10;;;;;;5026898;28;20440;-77
2021/10/05 01:26:46;;;;;;;;;;;20.30;64.10;;;;;;5031469;28;19939;-76
2021/10/05 01:29:12;;;;;;;;;;;20.30;64.10;;;;;;5033235;28;20385;-76
2021/10/05 01:31:40;;;;;;;;;;;20.30;64.00;;;;;;5025932;28;19916;-76
2021/10/05 01:34:05;;;;;;;;;;;20.30;64.10;;;;;;5042213;28;19938;-76
2021/10/05 01:36:31;;;;;;;;;;;20.30;64.10;;;;;;5030943;28;20537;-76
2021/10/05 01:38:56;;;;;;;;;;;20.30;64.00;;;;;;5020124;28;19921;-76
2021/10/05 01:41:22;;;;;;;;;;;20.30;64.00;;;;;;5046431;28;19955;-76
2021/10/05 01:43:47;;;;;;;;;;;20.30;64.10;;;;;;5030653;28;20296;-76
2021/10/05 01:46:14;;;;;;;;;;;20.30;64.00;;;;;;5032991;28;19920;-76
2021/10/05 01:48:39;;;;;;;;;;;20.30;64.10;;;;;;5021924;28;19916;-76
2021/10/05 01:51:05;;;;;;;;;;;20.30;64.00;;;;;;5051386;28;19981;-77
2021/10/05 01:53:30;;;;;;;;;;;20.30;64.00;;;;;;5045723;28;19917;-76
2021/10/05 01:55:56;;;;;;;;;;;20.30;64.10;;;;;;5031972;28;19950;-76
2021/10/05 01:58:21;;;;;;;;;;;20.30;64.10;;;;;;5049185;28;19921;-76
2021/10/05 02:00:47;;;;;;;;;;;20.30;64.10;;;;;;5055061;28;20377;-76
2021/10/05 02:03:14;;;;;;;;;;;20.30;64.00;;;;;;5038333;28;20011;-76
2021/10/05 02:05:41;;;;;;;;;;;20.30;64.00;;;;;;5040582;28;20000;-76
2021/10/05 02:08:07;;;;;;;;;;;20.30;64.00;;;;;;5050223;28;20019;-76
2021/10/05 02:10:32;;;;;;;;;;;20.30;64.00;;;;;;5039380;28;20000;-76
2021/10/05 02:12:58;;;;;;;;;;;20.30;64.00;;;;;;5050626;28;19921;-76
2021/10/05 02:15:23;;;;;;;;;;;20.30;64.00;;;;;;5026771;28;20405;-77
2021/10/05 02:17:49;;;;;;;;;;;20.30;64.00;;;;;;5047619;28;19917;-77
2021/10/05 02:20:14;;;;;;;;;;;20.30;64.00;;;;;;5044305;28;20428;-77
2021/10/05 02:22:39;;;;;;;;;;;20.30;64.00;;;;;;5043139;28;20228;-77
2021/10/05 02:25:05;;;;;;;;;;;20.30;64.00;;;;;;5052869;28;19920;-77
2021/10/05 02:27:31;;;;;;;;;;;20.30;64.00;;;;;;5031204;28;19924;-77
2021/10/05 02:29:56;;;;;;;;;;;20.20;63.90;;;;;;5032580;28;19920;-76
2021/10/05 02:32:22;;;;;;;;;;;20.30;64.00;;;;;;5028096;28;19917;-76
2021/10/05 02:34:47;;;;;;;;;;;20.30;64.00;;;;;;5043809;28;20382;-76
2021/10/05 02:37:13;;;;;;;;;;;20.20;63.90;;;;;;5048790;28;19962;-77
2021/10/05 02:39:38;;;;;;;;;;;20.30;63.90;;;;;;5027716;28;20421;-77
2021/10/05 02:42:04;;;;;;;;;;;20.30;63.90;;;;;;5022654;28;19917;-77
2021/10/05 02:44:29;;;;;;;;;;;20.20;63.90;;;;;;5043752;28;19932;-77
2021/10/05 02:46:54;;;;;;;;;;;20.30;63.90;;;;;;5035478;28;20561;-76
2021/10/05 02:49:20;;;;;;;;;;;20.30;63.90;;;;;;5044437;28;19928;-76
2021/10/05 02:51:45;;;;;;;;;;;20.30;63.80;;;;;;5040006;28;19924;-76
2021/10/05 02:54:11;;;;;;;;;;;20.30;63.80;;;;;;5032052;28;19927;-76
2021/10/05 02:56:36;;;;;;;;;;;20.30;63.80;;;;;;5047611;28;19918;-77
2021/10/05 02:59:02;;;;;;;;;;;20.30;63.90;;;;;;5044086;28;19947;-77
2021/10/05 03:01:27;;;;;;;;;;;20.30;63.80;;;;;;5049169;28;19916;-76
2021/10/05 03:03:53;;;;;;;;;;;20.20;63.80;;;;;;5056684;28;19924;-77
2021/10/05 03:06:18;;;;;;;;;;;20.20;63.80;;;;;;5029109;28;20031;-77
2021/10/05 03:08:44;;;;;;;;;;;20.20;63.80;;;;;;5009310;28;19974;-76
2021/10/05 03:11:09;;;;;;;;;;;20.30;63.80;;;;;;5033438;28;19921;-76
2021/10/05 03:13:35;;;;;;;;;;;20.20;63.80;;;;;;5047722;28;20567;-76
2021/10/05 03:16:01;;;;;;;;;;;20.20;63.80;;;;;;5047357;28;19917;-77
2021/10/05 03:18:27;;;;;;;;;;;20.20;63.80;;;;;;5050035;28;20055;-76
2021/10/05 03:20:52;;;;;;;;;;;20.20;63.80;;;;;;5045310;28;19917;-76
2021/10/05 03:23:18;;;;;;;;;;;20.20;63.80;;;;;;5048102;28;20400;-77
2021/10/05 03:25:43;;;;;;;;;;;20.20;63.80;;;;;;5028809;28;19925;-76
2021/10/05 03:28:08;;;;;;;;;;;20.20;63.80;;;;;;5042295;28;19971;-77
2021/10/05 03:30:34;;;;;;;;;;;20.20;63.90;;;;;;5040731;28;19932;-76
2021/10/05 03:32:59;;;;;;;;;;;20.20;63.90;;;;;;5044086;28;19917;-77
2021/10/05 03:35:25;;;;;;;;;;;20.20;63.80;;;;;;5047576;28;19917;-77
2021/10/05 03:37:50;;;;;;;;;;;20.20;63.80;;;;;;5035390;28;19924;-77
2021/10/05 03:40:16;;;;;;;;;;;20.20;63.90;;;;;;5032662;28;20522;-76
2021/10/05 03:42:41;;;;;;;;;;;20.20;63.80;;;;;;5031259;28;19925;-77
2021/10/05 03:45:07;;;;;;;;;;;20.20;63.80;;;;;;5054642;28;19927;-77
2021/10/05 03:47:32;;;;;;;;;;;20.20;63.80;;;;;;5049960;28;19917;-77
2021/10/05 03:49:58;;;;;;;;;;;20.20;63.80;;;;;;5039389;28;20618;-76
2021/10/05 03:52:23;;;;;;;;;;;20.20;63.80;;;;;;5063493;28;20016;-76
2021/10/05 03:54:49;;;;;;;;;;;20.20;63.80;;;;;;5061441;28;19928;-76
2021/10/05 03:57:18;;;;;;;;;;;20.20;63.80;;;;;;5040824;28;19921;-75
2021/10/05 03:59:44;;;;;;;;;;;20.20;63.80;;;;;;5041800;28;19928;-77
2021/10/05 04:02:09;;;;;;;;;;;20.20;64.40;;;;;;5060073;28;19916;-78
2021/10/05 04:04:35;;;;;;;;;;;20.20;63.70;;;;;;5045242;28;19976;-77
2021/10/05 04:07:00;;;;;;;;;;;20.20;63.80;;;;;;5057898;28;19917;-77
2021/10/05 04:09:26;;;;;;;;;;;20.20;63.80;;;;;;5062533;28;20229;-77
2021/10/05 04:11:51;;;;;;;;;;;20.20;63.80;;;;;;5064606;28;20206;-77
2021/10/05 04:14:17;;;;;;;;;;;20.20;63.80;;;;;;5033162;28;19920;-75
2021/10/05 04:16:42;;;;;;;;;;;20.20;63.80;;;;;;5061104;28;19916;-77
2021/10/05 04:19:07;;;;;;;;;;;20.20;63.80;;;;;;5062197;28;19920;-78
2021/10/05 04:21:33;;;;;;;;;;;20.20;63.80;;;;;;5080194;22;19932;-59
2021/10/05 04:23:58;;;;;;;;;;;20.20;63.80;;;;;;5050443;28;20305;-60
2021/10/05 04:26:24;;;;;;;;;;;20.20;63.80;;;;;;5049440;28;19921;-60
2021/10/05 04:28:49;;;;;;;;;;;20.10;63.70;;;;;;5052498;28;19917;-54
2021/10/05 04:31:15;;;;;;;;;;;20.20;63.80;;;;;;5030622;28;19917;-59
2021/10/05 04:33:40;;;;;;;;;;;20.20;63.90;;;;;;5036953;28;20286;-59
2021/10/05 04:36:06;;;;;;;;;;;20.20;63.90;;;;;;5038397;28;19916;-60
2021/10/05 04:38:31;;;;;;;;;;;20.20;63.90;;;;;;5056814;28;19944;-57
2021/10/05 04:40:56;;;;;;;;;;;20.20;64.10;;;;;;5038266;28;20286;-62
2021/10/05 04:43:22;;;;;;;;;;;20.20;64.60;;;;;;5058857;28;19913;-58
2021/10/05 04:45:47;;;;;;;;;;;20.10;64.60;;;;;;5049374;28;19916;-59
2021/10/05 04:48:13;;;;;;;;;;;20.20;64.80;;;;;;5026327;28;19925;-57
2021/10/05 04:50:38;;;;;;;;;;;20.10;65.00;;;;;;5047021;28;19951;-57
2021/10/05 04:53:04;;;;;;;;;;;20.10;65.10;;;;;;5040667;28;19917;-56
2021/10/05 04:55:29;;;;;;;;;;;20.10;65.00;;;;;;5077213;22;20361;-66
2021/10/05 04:57:55;;;;;;;;;;;20.10;64.90;;;;;;5059622;28;19916;-65
2021/10/05 05:00:20;;;;;;;;;;;20.10;64.80;;;;;;5052133;28;19920;-66
2021/10/05 05:02:46;;;;;;;;;;;20.20;64.70;;;;;;5054848;28;19912;-65
2021/10/05 05:05:11;;;;;;;;;;;20.20;64.60;;;;;;5052397;28;19960;-66
2021/10/05 05:07:36;;;;;;;;;;;20.10;64.50;;;;;;5041504;28;19924;-65
2021/10/05 05:10:03;;;;;;;;;;;20.10;64.50;;;;;;5041188;28;20549;-65
2021/10/05 05:12:28;;;;;;;;;;;20.20;64.40;;;;;;5054737;28;19920;-65
2021/10/05 05:14:54;;;;;;;;;;;20.20;64.40;;;;;;5054521;28;19965;-65
2021/10/05 05:17:19;;;;;;;;;;;20.20;64.40;;;;;;5053279;28;20011;-65
2021/10/05 05:19:45;;;;;;;;;;;20.10;64.20;;;;;;5027998;28;19920;-67
2021/10/05 05:22:10;;;;;;;;;;;20.20;64.20;;;;;;5055036;28;19935;-66
2021/10/05 05:24:35;;;;;;;;;;;20.20;64.30;;;;;;5050594;28;19924;-66
2021/10/05 05:27:01;;;;;;;;;;;20.10;64.30;;;;;;5052044;28;19999;-65
2021/10/05 05:29:26;;;;;;;;;;;20.20;64.30;;;;;;5059921;28;19912;-65
2021/10/05 05:31:52;;;;;;;;;;;20.20;64.70;;;;;;5042500;28;20509;-65
2021/10/05 05:34:19;;;;;;;;;;;20.20;65.30;;;;;;5059119;28;19920;-65
2021/10/05 05:36:44;;;;;;;;;;;20.20;65.50;;;;;;5036125;28;19913;-65
2021/10/05 05:39:09;;;;;;;;;;;20.10;65.40;;;;;;5061108;28;19920;-65
2021/10/05 05:41:35;;;;;;;;;;;20.10;65.40;;;;;;5051750;28;19924;-66
2021/10/05 05:44:00;;;;;;;;;;;20.10;65.50;;;;;;5056814;28;20605;-65
2021/10/05 05:46:26;;;;;;;;;;;20.20;65.40;;;;;;5062852;28;19917;-66
2021/10/05 05:48:51;;;;;;;;;;;20.10;65.30;;;;;;5043822;28;19912;-65
2021/10/05 05:51:17;;;;;;;;;;;20.10;65.30;;;;;;5061892;28;19943;-65
2021/10/05 05:53:43;;;;;;;;;;;20.10;65.20;;;;;;5061479;28;19934;-65
2021/10/05 05:56:09;;;;;;;;;;;20.20;65.20;;;;;;5044035;28;19947;-65
2021/10/05 05:58:34;;;;;;;;;;;20.20;65.20;;;;;;5060544;28;19924;-66
2021/10/05 06:01:00;;;;;;;;;;;20.10;65.10;;;;;;5060980;28;19950;-65
2021/10/05 06:03:25;;;;;;;;;;;20.10;65.10;;;;;;5061656;28;19913;-64
2021/10/05 06:05:51;;;;;;;;;;;20.20;65.10;;;;;;5043056;28;20364;-64
2021/10/05 06:08:16;;;;;;;;;;;20.10;65.10;;;;;;5042793;28;19916;-63
2021/10/05 06:10:42;;;;;;;;;;;20.10;65.00;;;;;;5061429;28;19912;-66
2021/10/05 06:13:08;;;;;;;;;;;20.20;65.10;;;;;;5060632;28;19919;-65
2021/10/05 06:15:36;;;;;;;;;;;20.10;65.30;;;;;;5060219;28;20072;-65
2021/10/05 06:18:01;;;;;;;;;;;20.10;65.40;;;;;;5060909;28;20428;-65
2021/10/05 06:20:27;;;;;;;;;;;20.20;65.40;;;;;;5060068;28;19917;-64
2021/10/05 06:22:52;;;;;;;;;;;20.20;65.40;;;;;;5042727;28;19912;-65
2021/10/05 06:25:24;;;;;;;;;;;20.20;65.60;;;;;;5059390;28;21288;-64
2021/10/05 06:27:50;;;;;;;;;;;20.10;65.20;;;;;;5059920;28;20099;-65
2021/10/05 06:30:15;;;;;;;;;;;20.10;65.10;;;;;;5059728;28;19920;-65
2021/10/05 06:32:41;;;;;;;;;;;20.20;65.10;;;;;;5041658;28;19920;-64
2021/10/05 06:35:06;;;;;;;;;;;20.20;65.10;;;;;;5059868;28;19920;-66
2021/10/05 06:37:32;;;;;;;;;;;20.10;65.00;;;;;;5059808;28;20376;-64
2021/10/05 06:39:57;;;;;;;;;;;20.10;65.00;;;;;;5059958;28;19923;-64
2021/10/05 06:42:23;;;;;;;;;;;20.20;65.00;;;;;;5058251;28;19977;-65
2021/10/05 06:44:48;;;;;;;;;;;20.10;64.90;;;;;;5058693;28;20403;-64
2021/10/05 06:47:13;;;;;;;;;;;20.10;65.00;;;;;;5059339;28;19991;-66
2021/10/05 06:49:39;;;;;;;;;;;20.10;65.00;;;;;;5040837;28;19966;-65
2021/10/05 06:52:04;;;;;;;;;;;20.10;64.90;;;;;;5059530;28;19922;-65
2021/10/05 06:54:30;;;;;;;;;;;20.10;64.90;;;;;;5058866;28;19920;-65
2021/10/05 06:56:56;;;;;;;;;;;20.10;64.90;;;;;;5059270;28;20376;-67
2021/10/05 06:59:22;;;;;;;;;;;20.10;64.90;;;;;;5058268;28;19924;-65
2021/10/05 07:01:48;;;;;;;;;;;20.10;65.00;;;;;;5058519;28;20716;-65
2021/10/05 07:04:13;;;;;;;;;;;20.20;65.00;;;;;;5058826;28;19939;-66
2021/10/05 07:06:40;;;;;;;;;;;20.10;65.00;;;;;;5041183;28;19913;-64
2021/10/05 07:09:05;;;;;;;;;;;20.10;65.00;;;;;;5040642;28;19913;-65
2021/10/05 07:11:33;;;;;;;;;;;20.10;65.00;;;;;;5057435;28;19920;-65
2021/10/05 07:13:59;;;;;;;;;;;20.10;65.20;;;;;;5058205;28;19912;-65
2021/10/05 07:16:24;;;;;;;;;;;20.10;65.20;;;;;;5058123;28;20470;-65
2021/10/05 07:18:50;;;;;;;;;;;20.10;65.10;;;;;;5062487;28;19974;-65
2021/10/05 07:21:16;;;;;;;;;;;20.10;65.20;;;;;;5057503;28;19916;-65
2021/10/05 07:23:42;;;;;;;;;;;20.10;65.20;;;;;;5058553;28;19962;-65
2021/10/05 07:26:07;;;;;;;;;;;20.10;65.10;;;;;;5055850;28;19916;-64
2021/10/05 07:28:33;;;;;;;;;;;20.10;65.20;;;;;;5064946;28;20287;-64
2021/10/05 07:30:58;;;;;;;;;;;20.10;65.10;;;;;;5059730;28;19963;-65
2021/10/05 07:33:26;;;;;;;;;;;20.10;65.10;;;;;;5060435;28;20037;-65
2021/10/05 07:35:51;;;;;;;;;;;20.10;65.20;;;;;;5062946;28;19912;-64
2021/10/05 07:38:17;;;;;;;;;;;20.10;65.10;;;;;;5061856;28;19986;-66
2021/10/05 07:40:42;;;;;;;;;;;20.10;65.10;;;;;;5054858;28;20408;-65
2021/10/05 07:43:08;;;;;;;;;;;20.10;65.10;;;;;;5044079;28;20346;-64
2021/10/05 07:45:34;;;;;;;;;;;20.10;65.10;;;;;;5058004;28;19919;-65
2021/10/05 07:48:00;;;;;;;;;;;20.10;65.10;;;;;;5061817;28;20380;-66
2021/10/05 07:50:25;;;;;;;;;;;20.10;65.10;;;;;;5062211;28;19916;-65
2021/10/05 07:52:51;;;;;;;;;;;20.10;65.10;;;;;;5043482;28;19952;-65
2021/10/05 07:55:16;;;;;;;;;;;20.10;65.10;;;;;;5061211;28;19974;-65
2021/10/05 07:57:42;;;;;;;;;;;20.10;65.00;;;;;;5061459;28;19923;-66
2021/10/05 08:00:07;;;;;;;;;;;20.10;65.10;;;;;;5060448;28;20003;-66
2021/10/05 08:02:33;;;;;;;;;;;20.10;65.10;;;;;;5061573;28;20381;-64
2021/10/05 08:04:59;;;;;;;;;;;20.10;65.10;;;;;;5062284;28;19913;-64
2021/10/05 08:07:26;;;;;;;;;;;20.10;65.00;;;;;;5035239;28;19916;-65
2021/10/05 08:09:55;;;;;;;;;;;20.10;65.00;;;;;;5061027;28;19916;-64
2021/10/05 08:12:21;;;;;;;;;;;20.00;65.00;;;;;;5067840;28;19946;-65
2021/10/05 08:14:46;;;;;;;;;;;20.10;65.10;;;;;;5043181;28;19962;-65
2021/10/05 08:17:12;;;;;;;;;;;20.10;65.10;;;;;;5061492;28;19913;-64
2021/10/05 08:19:37;;;;;;;;;;;20.10;65.10;;;;;;5060471;28;20355;-64
2021/10/05 08:22:03;;;;;;;;;;;20.10;65.10;;;;;;5061459;28;20346;-65
2021/10/05 08:24:29;;;;;;;;;;;20.10;65.00;;;;;;5061404;28;19912;-65
2021/10/05 08:26:54;;;;;;;;;;;20.10;65.00;;;;;;5060863;28;19916;-65
2021/10/05 08:29:20;;;;;;;;;;;20.10;65.00;;;;;;5060642;28;19986;-65
2021/10/05 08:31:46;;;;;;;;;;;20.10;65.00;;;;;;5061238;28;19998;-65
2021/10/05 08:34:11;;;;;;;;;;;20.10;65.00;;;;;;5060976;28;19958;-65
2021/10/05 08:36:37;;;;;;;;;;;20.10;65.10;;;;;;5061249;28;19912;-65
2021/10/05 08:39:02;;;;;;;;;;;20.10;65.10;;;;;;5060138;28;19947;-65
2021/10/05 08:41:28;;;;;;;;;;;20.10;65.10;;;;;;5061715;28;20300;-65
2021/10/05 08:43:53;;;;;;;;;;;20.10;65.10;;;;;;5042725;28;19912;-63
2021/10/05 08:46:19;;;;;;;;;;;20.10;65.00;;;;;;5060432;28;19924;-64
2021/10/05 08:48:46;;;;;;;;;;;20.00;65.00;;;;;;5043081;28;19935;-64
2021/10/05 08:51:11;;;;;;;;;;;20.10;65.10;;;;;;5060911;28;19916;-65
2021/10/05 08:53:37;;;;;;;;;;;20.00;65.00;;;;;;5060978;28;19919;-64
2021/10/05 08:56:03;;;;;;;;;;;20.00;65.00;;;;;;5061137;28;19974;-64
2021/10/05 08:58:29;;;;;;;;;;;20.10;65.10;;;;;;5060857;28;19943;-66
2021/10/05 09:00:54;;;;;;;;;;;20.10;65.10;;;;;;5060946;28;19916;-64
2021/10/05 09:03:20;;;;;;;;;;;20.00;65.00;;;;;;5061643;28;19920;-64
2021/10/05 09:05:45;;;;;;;;;;;20.00;65.00;;;;;;5061415;28;19920;-65
2021/10/05 09:08:11;;;;;;;;;;;20.00;65.00;;;;;;5061826;28;19913;-64
2021/10/05 09:10:37;;;;;;;;;;;20.00;65.00;;;;;;5044052;28;19922;-64
2021/10/05 09:13:02;;;;;;;;;;;20.00;65.00;;;;;;5063258;28;19919;-64
2021/10/05 09:15:28;;;;;;;;;;;20.00;65.00;;;;;;5064084;28;19924;-65
2021/10/05 09:17:54;;;;;;;;;;;20.00;65.00;;;;;;5065315;28;19913;-64
2021/10/05 09:20:21;;;;;;;;;;;20.00;65.00;;;;;;5081596;28;19963;-64
2021/10/05 09:22:56;;;;;;;;;;;20.00;65.00;;;;;;5081914;28;19925;-64
2021/10/05 09:25:33;;;;;;;;;;;20.00;65.00;;;;;;5066779;28;19920;-66
2021/10/05 09:27:58;;;;;;;;;;;20.00;65.00;;;;;;5034626;28;19920;-66
2021/10/05 09:30:24;;;;;;;;;;;20.10;65.10;;;;;;5061525;28;19917;-65
2021/10/05 09:32:59;;;;;;;;;;;20.00;65.10;;;;;;5062355;28;19921;-65
2021/10/05 09:35:24;;;;;;;;;;;20.00;65.00;;;;;;5060080;28;20301;-65
2021/10/05 09:37:50;;;;;;;;;;;20.00;65.00;;;;;;5060237;28;19920;-65
2021/10/05 09:40:15;;;;;;;;;;;20.00;65.10;;;;;;5059394;28;20518;-65
2021/10/05 09:42:41;;;;;;;;;;;20.00;65.10;;;;;;5060220;28;20051;-66
2021/10/05 09:45:08;;;;;;;;;;;20.00;65.10;;;;;;5059896;28;19947;-66
2021/10/05 09:47:46;;;;;;;;;;;20.00;65.00;;;;;;5059582;28;19913;-65
2021/10/05 09:50:17;;;;;;;;;;;20.00;65.00;;;;;;5058754;28;19916;-64
2021/10/05 09:52:44;;;;;;;;;;;20.00;65.00;;;;;;5041892;28;19912;-64
2021/10/05 09:55:09;;;;;;;;;;;20.00;65.00;;;;;;5059088;28;20060;-65
2021/10/05 09:57:35;;;;;;;;;;;20.00;65.10;;;;;;5058691;28;20391;-65
2021/10/05 10:00:00;;;;;;;;;;;20.00;65.10;;;;;;5058983;28;19924;-65
2021/10/05 10:02:26;;;;;;;;;;;20.00;65.10;;;;;;5059329;28;19913;-65
2021/10/05 10:04:51;;;;;;;;;;;20.00;65.10;;;;;;5041146;28;20580;-65
2021/10/05 10:07:16;;;;;;;;;;;20.00;65.10;;;;;;5058885;28;19917;-66
2021/10/05 10:09:42;;;;;;;;;;;20.00;65.10;;;;;;5041074;28;19919;-64
2021/10/05 10:12:07;;;;;;;;;;;20.00;65.10;;;;;;5059176;28;19938;-64
2021/10/05 10:14:33;;;;;;;;;;;20.00;65.10;;;;;;5060453;28;19920;-64
2021/10/05 10:16:58;;;;;;;;;;;19.90;65.10;;;;;;5059660;28;19916;-64
2021/10/05 10:19:25;;;;;;;;;;;20.00;65.10;;;;;;5058627;28;19916;-65
2021/10/05 10:21:50;;;;;;;;;;;20.00;65.20;;;;;;5059195;28;19928;-64
2021/10/05 10:24:18;;;;;;;;;;;20.00;65.20;;;;;;5041887;28;19916;-64
2021/10/05 10:26:46;;;;;;;;;;;20.00;65.80;;;;;;5059593;28;20737;-65
2021/10/05 10:29:13;;;;;;;;;;;20.00;65.10;;;;;;5058757;28;19913;-65
2021/10/05 10:31:39;;;;;;;;;;;20.00;65.20;;;;;;5059476;28;20696;-65
2021/10/05 10:34:05;;;;;;;;;;;20.00;65.20;;;;;;5059028;28;20480;-65
2021/10/05 10:36:39;;;;;;;;;;;20.00;65.10;;;;;;5041089;28;19924;-65
2021/10/05 10:39:08;;;;;;;;;;;20.00;65.20;;;;;;5058783;28;19924;-65
2021/10/05 10:41:34;;;;;;;;;;;20.00;65.20;;;;;;5058411;28;19961;-66
2021/10/05 10:44:04;;;;;;;;;;;20.00;65.20;;;;;;5060110;28;19921;-65
2021/10/05 10:46:33;;;;;;;;;;;20.00;65.20;;;;;;5058650;28;19923;-64
2021/10/05 10:48:59;;;;;;;;;;;20.00;65.20;;;;;;5058314;28;19916;-65
2021/10/05 10:51:28;;;;;;;;;;;20.00;65.20;;;;;;5059073;28;19912;-65
2021/10/05 10:53:54;;;;;;;;;;;20.00;65.20;;;;;;5057971;28;19913;-64
2021/10/05 10:56:29;;;;;;;;;;;20.00;65.20;;;;;;5058219;28;20374;-64
2021/10/05 10:58:58;;;;;;;;;;;20.00;65.30;;;;;;5058284;28;19917;-65
2021/10/05 11:01:33;;;;;;;;;;;20.00;65.20;;;;;;5041628;28;21133;-65
2021/10/05 11:04:03;;;;;;;;;;;19.90;65.10;;;;;;5058555;28;19912;-65
2021/10/05 11:06:28;;;;;;;;;;;20.00;65.20;;;;;;5059005;28;19913;-65
2021/10/05 11:08:54;;;;;;;;;;;20.00;65.20;;;;;;5057887;28;19919;-65
2021/10/05 11:11:29;;;;;;;;;;;20.00;65.20;;;;;;5058159;28;19920;-65
2021/10/05 11:13:55;;;;;;;;;;;20.00;65.20;;;;;;5057785;28;19917;-65
2021/10/05 11:16:23;;;;;;;;;;;19.90;65.20;;;;;;5058378;28;19921;-64
2021/10/05 11:19:01;;;;;;;;;;;19.90;65.20;;;;;;5057543;28;19917;-65
2021/10/05 11:21:30;;;;;;;;;;;19.90;65.30;;;;;;5057844;28;19912;-63
2021/10/05 11:23:56;;;;;;;;;;;20.00;65.30;;;;;;5058446;28;19931;-65
2021/10/05 11:26:28;;;;;;;;;;;19.90;65.30;;;;;;5058202;28;20528;-65
2021/10/05 11:28:54;;;;;;;;;;;19.90;65.30;;;;;;5058034;28;19916;-65
2021/10/05 11:31:19;;;;;;;;;;;19.90;65.20;;;;;;5059072;28;19913;-65
2021/10/05 11:33:46;;;;;;;;;;;19.90;65.20;;;;;;5057795;28;19913;-65
2021/10/05 11:36:14;;;;;;;;;;;20.00;65.30;;;;;;5057334;28;19916;-65
2021/10/05 11:38:41;;;;;;;;;;;20.00;65.30;;;;;;5058234;28;19927;-65
2021/10/05 11:41:06;;;;;;;;;;;19.90;65.20;;;;;;5040077;28;19977;-64
2021/10/05 11:43:35;;;;;;;;;;;19.90;65.20;;;;;;5058105;28;19912;-64
2021/10/05 11:46:09;;;;;;;;;;;19.90;65.20;;;;;;5058525;28;20519;-65
2021/10/05 11:48:42;;;;;;;;;;;20.00;65.30;;;;;;5040521;28;19947;-63
2021/10/05 11:51:08;;;;;;;;;;;19.90;65.20;;;;;;5050736;28;19967;-65
2021/10/05 11:53:37;;;;;;;;;;;19.90;65.30;;;;;;5057574;28;20265;-65
2021/10/05 11:56:03;;;;;;;;;;;19.90;65.20;;;;;;5058500;28;19986;-64
2021/10/05 11:58:38;;;;;;;;;;;19.90;65.30;;;;;;5058265;28;19942;-65
2021/10/05 12:01:11;;;;;;;;;;;19.90;65.30;;;;;;5057787;28;20495;-65
2021/10/05 12:03:36;;;;;;;;;;;19.90;65.30;;;;;;5057801;28;19947;-66
2021/10/05 12:06:02;;;;;;;;;;;19.90;65.20;;;;;;5057837;28;19919;-65
2021/10/05 12:08:27;;;;;;;;;;;19.90;65.30;;;;;;5057965;28;19912;-64
2021/10/05 12:10:53;;;;;;;;;;;19.90;65.30;;;;;;5040112;28;19913;-66
2021/10/05 12:13:19;;;;;;;;;;;19.90;65.40;;;;;;5023842;28;19931;-65
2021/10/05 12:15:44;;;;;;;;;;;19.90;65.40;;;;;;5040325;28;19912;-65
2021/10/05 12:18:11;;;;;;;;;;;19.90;65.30;;;;;;5057230;28;19923;-64
2021/10/05 12:20:37;;;;;;;;;;;19.90;65.30;;;;;;5042167;28;19916;-64
2021/10/05 12:23:06;;;;;;;;;;;19.90;65.30;;;;;;5043957;28;19919;-63
2021/10/05 12:25:31;;;;;;;;;;;19.90;65.40;;;;;;5061873;28;20388;-64
2021/10/05 12:27:57;;;;;;;;;;;19.90;65.40;;;;;;5061675;28;19913;-65
2021/10/05 12:30:28;;;;;;;;;;;19.90;65.40;;;;;;5060620;28;19916;-65
2021/10/05 12:32:54;;;;;;;;;;;19.90;65.40;;;;;;5061820;28;20158;-64
2021/10/05 12:35:22;;;;;;;;;;;19.90;65.40;;;;;;5061839;28;19938;-65
2021/10/05 12:37:55;;;;;;;;;;;19.90;65.40;;;;;;5061073;28;20060;-64
2021/10/05 12:40:20;;;;;;;;;;;19.90;65.40;;;;;;5060639;28;20114;-65
2021/10/05 12:42:46;;;;;;;;;;;19.90;65.40;;;;;;5061673;28;19981;-65
2021/10/05 12:45:12;;;;;;;;;;;19.90;65.40;;;;;;5043395;28;19916;-64
2021/10/05 12:47:57;;;;;;;;;;;19.90;65.40;;;;;;5061588;28;20007;-65
2021/10/05 12:50:23;;;;;;;;;;;19.90;65.40;;;;;;5062090;28;20212;-65
2021/10/05 12:52:49;;;;;;;;;;;19.90;65.50;;;;;;5063063;28;20241;-65
2021/10/05 12:55:15;;;;;;;;;;;19.90;65.40;;;;;;5061173;28;19948;-66
2021/10/05 12:57:40;;;;;;;;;;;19.90;65.40;;;;;;5060560;28;19952;-65
2021/10/05 13:00:06;;;;;;;;;;;19.90;65.50;;;;;;5060807;28;19924;-65
2021/10/05 13:02:31;;;;;;;;;;;19.90;65.40;;;;;;5061166;28;20036;-64
2021/10/05 13:04:57;;;;;;;;;;;19.90;65.50;;;;;;5060352;28;21655;-65
2021/10/05 13:07:22;;;;;;;;;;;19.90;65.50;;;;;;5061463;28;19913;-65
2021/10/05 13:09:48;;;;;;;;;;;19.90;65.50;;;;;;5061590;28;19917;-64
2021/10/05 13:12:13;;;;;;;;;;;19.90;65.50;;;;;;5060653;28;19921;-65
2021/10/05 13:14:38;;;;;;;;;;;19.90;65.50;;;;;;5059926;28;20383;-64
2021/10/05 13:17:04;;;;;;;;;;;19.90;65.50;;;;;;5060016;28;20116;-64
2021/10/05 13:19:29;;;;;;;;;;;19.90;65.50;;;;;;5060552;28;19920;-64
2021/10/05 13:21:55;;;;;;;;;;;19.90;65.40;;;;;;5060380;28;19923;-64
2021/10/05 13:24:20;;;;;;;;;;;19.90;65.60;;;;;;5060185;28;20180;-64
2021/10/05 13:26:46;;;;;;;;;;;19.90;65.50;;;;;;5060898;28;19999;-64
2021/10/05 13:29:11;;;;;;;;;;;19.90;65.50;;;;;;5059966;28;19920;-65
2021/10/05 13:31:37;;;;;;;;;;;19.90;65.50;;;;;;5060642;28;19948;-65
2021/10/05 13:34:02;;;;;;;;;;;19.90;65.60;;;;;;5060520;28;19912;-64
2021/10/05 13:36:27;;;;;;;;;;;19.80;65.50;;;;;;5061533;28;19960;-64
2021/10/05 13:38:53;;;;;;;;;;;19.90;65.60;;;;;;5060286;28;20284;-64
2021/10/05 13:41:18;;;;;;;;;;;19.90;65.60;;;;;;5060259;28;19940;-65
2021/10/05 13:43:46;;;;;;;;;;;19.90;65.60;;;;;;5042656;28;19924;-65
2021/10/05 13:46:11;;;;;;;;;;;19.90;65.50;;;;;;5060317;28;19963;-66
2021/10/05 13:48:36;;;;;;;;;;;19.90;65.60;;;;;;5060065;28;19962;-65
2021/10/05 13:51:02;;;;;;;;;;;19.90;65.60;;;;;;5061299;28;19919;-66
2021/10/05 13:53:27;;;;;;;;;;;19.90;65.80;;;;;;5061663;28;19912;-65
2021/10/05 13:55:53;;;;;;;;;;;19.90;65.70;;;;;;5061451;28;20385;-65
2021/10/05 13:58:18;;;;;;;;;;;19.90;65.70;;;;;;5059975;28;19998;-65
2021/10/05 14:00:46;;;;;;;;;;;19.90;65.70;;;;;;5060968;28;19974;-65
2021/10/05 14:03:11;;;;;;;;;;;19.90;65.60;;;;;;5060144;28;19916;-64
2021/10/05 14:05:37;;;;;;;;;;;19.90;65.70;;;;;;5041119;28;19935;-66
2021/10/05 14:08:02;;;;;;;;;;;19.90;65.70;;;;;;5042158;28;20567;-65
2021/10/05 14:10:28;;;;;;;;;;;19.90;65.60;;;;;;5059603;28;20003;-65